Terminal Aerodrome Forecast
Issued by NWS

Home | Current Version | Previous Version | Text Only | Print | Product List | Glossary On
Versions: 1 2 3 4 5 6 7 8 9 10 11 12 13 14 15 16 17 18 19 20 21
000
FTUS45 KSLC 251228 AAA
TAFBCE
TAF AMD
KBCE 251228Z 2512/2612 05005KT P6SM VCSH SCT007 OVC035
      TEMPO 2513/2515 6SM RA BR BKN005
     FM251500 18006KT P6SM -SHRA SCT005 BKN020
     FM251900 23008KT P6SM VCSH SCT020 BKN040
     FM260300 27008KT P6SM VCSH SCT070 BKN120=

USA.gov is the U.S. government's official web portal to all federal, state and local government web resources and services.